Pounding Mill, Virginia
Current Conditions -  °F | °C
As of 1:15 AM on Monday 26 Jan 2015 (Local Time) from KJFZ Reporting Station
Broken Clouds Broken Clouds  
Wind Chill: 37°   Ceiling: 4200
Heat Index: 41°   Visibility: 10mi
Dew Point: 28°   Wind: 7mph
Humidity: 60%   Direction: 190°S
Pressure: 29.62"   Gusts: NA
Location:  37.08°N, 81.71°W
Report Text: KJFZ 260615Z AUTO 19006KT 10SM BKN042 05/M02 A2962 RMK AO2 T00511020
Loading
Personal Weather Stations






























Interactive Weather Map New forecast layout! Learn more

10-Day Weather Forecast

Advertisements
Track Severe Weather on mobile